createdAt,value
2018-06-13T00:01:44.601Z,100192.23
2018-06-13T00:04:13.281Z,100191.55
2018-06-13T00:06:41.864Z,100203.48
2018-06-13T00:09:10.365Z,100197.83
2018-06-13T00:11:39.026Z,100200.30
2018-06-13T00:14:07.712Z,100207.91
2018-06-13T00:16:36.242Z,100202.59
2018-06-13T00:19:04.814Z,100206.11
2018-06-13T00:21:33.459Z,100205.83
2018-06-13T00:24:02.044Z,100202.06
2018-06-13T00:26:30.639Z,100198.70
2018-06-13T00:29:00.027Z,100204.00
2018-06-13T00:31:28.609Z,100203.25
2018-06-13T00:33:57.397Z,100206.47
2018-06-13T00:36:26.447Z,100204.78
2018-06-13T00:38:55.790Z,100201.98
2018-06-13T00:41:24.423Z,100198.59
2018-06-13T00:43:53.618Z,100199.55
2018-06-13T00:46:22.299Z,100198.80
2018-06-13T00:48:50.944Z,100196.72
2018-06-13T00:51:19.628Z,100196.94
2018-06-13T00:53:48.209Z,100201.12
2018-06-13T00:56:29.272Z,100204.49
2018-06-13T00:58:57.869Z,100200.63
2018-06-13T01:01:26.555Z,100203.84
2018-06-13T01:03:55.136Z,100201.41
2018-06-13T01:06:23.638Z,100202.48
2018-06-13T01:08:52.286Z,100201.25
2018-06-13T01:11:20.834Z,100193.52
2018-06-13T01:13:50.066Z,100192.66
2018-06-13T01:16:18.562Z,100190.12
2018-06-13T01:18:47.197Z,100193.73
2018-06-13T01:21:15.749Z,100196.02
2018-06-13T01:23:44.326Z,100193.19
2018-06-13T01:26:13.687Z,100198.48
2018-06-13T01:28:42.858Z,100192.83
2018-06-13T01:31:11.496Z,100190.85
2018-06-13T01:33:40.592Z,100187.48
2018-06-13T01:36:09.120Z,100184.19
2018-06-13T01:38:37.715Z,100176.59
2018-06-13T01:41:06.358Z,100178.31
2018-06-13T01:43:35.023Z,100172.63
2018-06-13T01:46:03.625Z,100169.97
2018-06-13T01:48:32.290Z,100161.72
2018-06-13T01:51:00.822Z,100176.80
2018-06-13T01:53:30.286Z,100171.72
2018-06-13T01:55:58.960Z,100174.16
2018-06-13T01:58:27.606Z,100168.75
2018-06-13T02:00:56.146Z,100165.64
2018-06-13T02:03:24.660Z,100165.64
2018-06-13T02:05:53.296Z,100164.06
2018-06-13T02:08:22.408Z,100152.61
2018-06-13T02:10:51.073Z,100162.34
2018-06-13T02:13:19.758Z,100161.12
2018-06-13T02:15:48.355Z,100159.55
2018-06-13T02:18:17.025Z,100166.52
2018-06-13T02:20:45.711Z,100167.74
2018-06-13T02:23:14.296Z,100168.50
2018-06-13T02:25:42.858Z,100167.07
2018-06-13T02:28:11.378Z,100166.60
2018-06-13T02:30:40.043Z,100166.39
2018-06-13T02:33:08.582Z,100169.97
2018-06-13T02:35:37.165Z,100169.41
2018-06-13T02:38:05.781Z,100171.38
2018-06-13T02:40:34.286Z,100175.25
2018-06-13T02:43:02.878Z,100173.53
2018-06-13T02:45:31.383Z,100173.27
2018-06-13T02:48:00.122Z,100176.39
2018-06-13T02:50:28.686Z,100177.71
2018-06-13T02:52:57.234Z,100171.09
2018-06-13T02:55:25.746Z,100174.70
2018-06-13T02:57:54.353Z,100168.08
2018-06-13T03:00:23.038Z,100170.37
2018-06-13T03:02:51.727Z,100178.67
2018-06-13T03:05:20.322Z,100177.34
2018-06-13T03:07:48.846Z,100175.66
2018-06-13T03:10:17.470Z,100175.45
2018-06-13T03:12:46.155Z,100167.87
2018-06-13T03:15:14.841Z,100170.88
2018-06-13T03:17:43.526Z,100175.25
2018-06-13T03:20:12.212Z,100175.39
2018-06-13T03:22:40.823Z,100179.52
2018-06-13T03:25:09.480Z,100172.21
2018-06-13T03:27:38.051Z,100172.25
2018-06-13T03:30:06.874Z,100177.23
2018-06-13T03:32:35.537Z,100179.92
2018-06-13T03:35:04.112Z,100174.30
2018-06-13T03:37:32.704Z,100174.73
2018-06-13T03:40:02.043Z,100173.94
2018-06-13T03:42:30.570Z,100171.95
2018-06-13T03:44:59.175Z,100169.59
2018-06-13T03:47:27.852Z,100173.44
2018-06-13T03:49:56.435Z,100171.92
2018-06-13T03:52:25.113Z,100173.52
2018-06-13T03:54:53.892Z,100172.50
2018-06-13T03:57:22.481Z,100170.61
2018-06-13T03:59:51.994Z,100173.17
2018-06-13T04:02:20.577Z,100169.25
2018-06-13T04:04:49.263Z,100170.48
2018-06-13T04:07:18.011Z,100164.60
2018-06-13T04:09:46.627Z,100160.75
2018-06-13T04:12:15.254Z,100158.52
2018-06-13T04:14:43.914Z,100157.83
2018-06-13T04:17:12.484Z,100155.48
2018-06-13T04:19:41.684Z,100146.36
2018-06-13T04:22:10.286Z,100148.67
2018-06-13T04:24:39.019Z,100141.88
2018-06-13T04:27:07.738Z,100146.56
2018-06-13T04:29:36.422Z,100145.46
2018-06-13T04:32:04.995Z,100136.95
2018-06-13T04:34:34.305Z,100137.63
2018-06-13T04:37:02.938Z,100137.91
2018-06-13T04:39:31.473Z,100129.97
2018-06-13T04:42:00.125Z,100139.33
2018-06-13T04:44:28.740Z,100136.95
2018-06-13T04:46:57.427Z,100129.59
2018-06-13T04:49:26.072Z,100075.45
2018-06-13T04:51:54.695Z,100130.78
2018-06-13T04:54:23.993Z,100132.31
2018-06-13T04:56:52.510Z,100128.84
2018-06-13T04:59:21.261Z,100127.31
2018-06-13T05:01:49.929Z,100124.45
2018-06-13T05:04:18.478Z,100124.25
2018-06-13T05:06:47.111Z,100122.75
2018-06-13T05:09:15.797Z,100115.27
2018-06-13T05:11:44.379Z,100117.38
2018-06-13T05:14:12.907Z,100119.50
2018-06-13T05:16:41.545Z,100123.00
2018-06-13T05:19:10.038Z,100128.30
2018-06-13T05:21:38.710Z,100134.98
2018-06-13T05:24:07.280Z,100131.72
2018-06-13T05:26:35.877Z,100127.54
2018-06-13T05:29:04.706Z,100135.09
2018-06-13T05:31:33.454Z,100131.45
2018-06-13T05:34:01.967Z,100120.06
2018-06-13T05:36:30.570Z,100128.34
2018-06-13T05:38:59.307Z,100129.55
2018-06-13T05:41:27.887Z,100129.17
2018-06-13T05:43:56.535Z,100127.98
2018-06-13T05:46:25.058Z,100125.25
2018-06-13T05:48:53.558Z,100128.89
2018-06-13T05:51:22.219Z,100128.55
2018-06-13T05:53:51.537Z,100119.14
2018-06-13T05:56:20.263Z,100126.22
2018-06-13T05:58:48.897Z,100137.20
2018-06-13T06:01:17.545Z,100142.37
2018-06-13T06:03:46.155Z,100140.26
2018-06-13T06:06:14.840Z,100135.24
2018-06-13T06:08:43.470Z,100141.38
2018-06-13T06:11:12.928Z,100138.85
2018-06-13T06:13:41.526Z,100143.20
2018-06-13T06:16:10.142Z,100150.46
2018-06-13T06:18:38.728Z,100153.89
2018-06-13T06:21:07.614Z,100154.36
2018-06-13T06:23:36.261Z,100160.76
2018-06-13T06:26:04.993Z,100166.70
2018-06-13T06:28:33.621Z,100162.59
2018-06-13T06:31:02.308Z,100159.63
2018-06-13T06:33:30.954Z,100166.98
2018-06-13T06:35:59.576Z,100166.22
2018-06-13T06:38:28.157Z,100170.62
2018-06-13T06:40:56.690Z,100161.55
2018-06-13T06:43:25.326Z,100161.83
2018-06-13T06:45:53.828Z,100166.11
2018-06-13T06:48:22.379Z,100163.29
2018-06-13T06:50:51.034Z,100167.45
2018-06-13T06:53:19.543Z,100157.84
2018-06-13T06:55:48.226Z,100163.65
2018-06-13T06:58:16.763Z,100167.00
2018-06-13T07:00:45.404Z,100167.41
2018-06-13T07:03:13.988Z,100177.62
2018-06-13T07:05:42.528Z,100174.94
2018-06-13T07:08:11.256Z,100176.79
2018-06-13T07:10:39.941Z,100176.25
2018-06-13T07:13:08.511Z,100188.12
2018-06-13T07:15:37.040Z,100184.51
2018-06-13T07:18:06.420Z,100183.02
2018-06-13T07:20:35.001Z,100174.91
2018-06-13T07:23:03.501Z,100171.64
2018-06-13T07:25:32.059Z,100176.77
2018-06-13T07:28:00.591Z,100164.72
2018-06-13T07:30:29.321Z,100161.22
2018-06-13T07:32:57.903Z,100169.26
2018-06-13T07:35:26.410Z,100165.16
2018-06-13T07:37:55.893Z,100168.99
2018-06-13T07:40:24.474Z,100172.11
2018-06-13T07:42:53.116Z,100173.15
2018-06-13T07:45:21.739Z,100183.02
2018-06-13T07:47:50.321Z,100171.83
2018-06-13T07:50:18.905Z,100182.13
2018-06-13T07:52:47.534Z,100176.06
2018-06-13T07:55:16.058Z,100192.63
2018-06-13T07:57:44.566Z,100184.77
2018-06-13T08:00:13.237Z,100187.55
2018-06-13T08:02:41.813Z,100184.95
2018-06-13T08:05:10.322Z,100178.55
2018-06-13T08:07:38.898Z,100173.89
2018-06-13T08:10:07.474Z,100178.01
2018-06-13T08:12:36.096Z,100182.03
2018-06-13T08:15:05.028Z,100184.71
2018-06-13T08:17:33.662Z,100186.38
2018-06-13T08:20:02.210Z,100182.03
2018-06-13T08:22:30.795Z,100179.69
2018-06-13T08:24:59.371Z,100183.00
2018-06-13T08:27:27.954Z,100181.05
2018-06-13T08:29:56.564Z,100178.41
2018-06-13T08:32:25.266Z,100187.58
2018-06-13T08:34:53.926Z,100182.03
2018-06-13T08:37:22.531Z,100180.10
2018-06-13T08:39:51.140Z,100175.48
2018-06-13T08:42:19.759Z,100170.77
2018-06-13T08:44:48.386Z,100165.44
2018-06-13T08:47:17.045Z,100166.91
2018-06-13T08:49:45.550Z,100173.73
2018-06-13T08:52:14.193Z,100164.44
2018-06-13T08:54:42.690Z,100161.30
2018-06-13T08:57:11.872Z,100163.19
2018-06-13T08:59:40.455Z,100167.91
2018-06-13T09:02:08.958Z,100164.69
2018-06-13T09:04:37.519Z,100162.14
2018-06-13T09:07:06.202Z,100160.27
2018-06-13T09:09:34.887Z,100158.41
2018-06-13T09:12:03.594Z,100164.45
2018-06-13T09:14:32.261Z,100164.13
2018-06-13T09:17:00.842Z,100167.83
2018-06-13T09:19:29.423Z,100165.54
2018-06-13T09:21:57.906Z,100164.25
2018-06-13T09:24:26.494Z,100164.25
2018-06-13T09:26:54.970Z,100164.25
2018-06-13T09:29:23.635Z,100163.58
2018-06-13T09:31:52.339Z,100161.80
2018-06-13T09:34:20.866Z,100166.95
2018-06-13T09:36:49.504Z,100166.91
2018-06-13T09:39:18.193Z,100167.06
2018-06-13T09:41:51.996Z,100159.52
2018-06-13T09:44:20.682Z,100171.95
2018-06-13T09:46:49.263Z,100168.09
2018-06-13T09:49:17.779Z,100171.52
2018-06-13T09:51:46.429Z,100170.55
2018-06-13T09:54:15.081Z,100171.20
2018-06-13T09:56:43.743Z,100164.15
2018-06-13T09:59:13.642Z,100161.63
2018-06-13T10:01:47.473Z,100164.64
2018-06-13T10:04:16.014Z,100165.78
2018-06-13T10:06:44.629Z,100166.75
2018-06-13T10:09:13.676Z,100163.73
2018-06-13T10:11:42.362Z,100157.86
2018-06-13T10:14:10.899Z,100155.72
2018-06-13T10:16:39.441Z,100153.03
2018-06-13T10:19:08.667Z,100160.81
2018-06-13T10:21:37.850Z,100153.77
2018-06-13T10:24:06.505Z,100157.39
2018-06-13T10:26:35.533Z,100158.67
2018-06-13T10:29:04.713Z,100092.81
2018-06-13T10:31:33.379Z,100158.36
2018-06-13T10:34:01.915Z,100161.97
2018-06-13T10:36:30.566Z,100163.16
2018-06-13T10:38:59.779Z,100172.43
2018-06-13T10:41:28.428Z,100171.36
2018-06-13T10:43:57.625Z,100173.72
2018-06-13T10:46:26.118Z,100178.00
2018-06-13T10:48:54.610Z,100181.00
2018-06-13T10:51:23.111Z,100182.69
2018-06-13T10:53:51.659Z,100187.40
2018-06-13T10:56:21.047Z,100190.67
2018-06-13T10:58:50.148Z,100184.66
2018-06-13T11:01:18.791Z,100169.19
2018-06-13T11:03:47.417Z,100177.00
2018-06-13T11:06:15.997Z,100178.00
2018-06-13T11:08:45.299Z,100172.06
2018-06-13T11:11:13.879Z,100181.90
2018-06-13T11:13:42.926Z,100176.90
2018-06-13T11:16:12.199Z,100186.67
2018-06-13T11:18:40.798Z,100182.96
2018-06-13T11:21:09.440Z,100181.88
2018-06-13T11:23:38.125Z,100185.42
2018-06-13T11:26:06.826Z,100193.64
2018-06-13T11:28:35.456Z,100180.92
2018-06-13T11:31:04.078Z,100182.59
2018-06-13T11:33:32.610Z,100194.43
2018-06-13T11:36:01.244Z,100192.09
2018-06-13T11:38:29.870Z,100187.98
2018-06-13T11:40:58.394Z,100186.37
2018-06-13T11:43:27.604Z,100186.54
2018-06-13T11:45:56.402Z,100188.98
2018-06-13T11:48:24.914Z,100187.84
2018-06-13T11:50:53.506Z,100190.06
2018-06-13T11:53:22.146Z,100186.42
2018-06-13T11:55:50.642Z,100188.00
2018-06-13T11:58:19.254Z,100184.34
2018-06-13T12:00:47.886Z,100188.90
2018-06-13T12:03:16.475Z,100187.34
2018-06-13T12:05:45.104Z,100191.16
2018-06-13T12:08:13.810Z,100193.45
2018-06-13T12:10:42.411Z,100190.02
2018-06-13T12:13:10.940Z,100190.61
2018-06-13T12:15:39.966Z,100192.59
2018-06-13T12:18:09.360Z,100190.55
2018-06-13T12:20:37.955Z,100188.75
2018-06-13T12:23:06.572Z,100188.83
2018-06-13T12:25:35.099Z,100190.06
2018-06-13T12:28:03.632Z,100184.23
2018-06-13T12:30:32.466Z,100173.48
2018-06-13T12:33:01.827Z,100179.80
2018-06-13T12:35:30.521Z,100181.48
2018-06-13T12:37:59.170Z,100184.39
2018-06-13T12:40:27.739Z,100183.28
2018-06-13T12:42:56.361Z,100191.66
2018-06-13T12:45:24.969Z,100190.25
2018-06-13T12:47:53.564Z,100182.30
2018-06-13T12:50:22.110Z,100188.12
2018-06-13T12:52:50.693Z,100176.90
2018-06-13T12:55:19.275Z,100182.34
2018-06-13T12:57:47.859Z,100173.67
2018-06-13T13:00:16.347Z,100169.27
2018-06-13T13:02:44.878Z,100164.59
2018-06-13T13:05:13.481Z,100167.33
2018-06-13T13:07:43.421Z,100167.98
2018-06-13T13:10:12.023Z,100156.91
2018-06-13T13:12:40.835Z,100155.02
2018-06-13T13:15:09.856Z,100160.08
2018-06-13T13:17:38.378Z,100161.75
2018-06-13T13:20:07.831Z,100158.73
2018-06-13T13:22:36.358Z,100158.08
2018-06-13T13:25:05.006Z,100155.40
2018-06-13T13:27:33.678Z,100162.81
2018-06-13T13:30:02.388Z,100160.13
2018-06-13T13:32:31.040Z,100165.87
2018-06-13T13:34:59.673Z,100165.38
2018-06-13T13:37:29.342Z,100032.09
2018-06-13T13:39:58.225Z,100168.50
2018-06-13T13:42:26.962Z,100156.09
2018-06-13T13:44:55.793Z,100163.51
2018-06-13T13:47:24.379Z,100162.86
2018-06-13T13:49:53.014Z,100166.52
2018-06-13T13:52:21.635Z,100166.88
2018-06-13T13:54:50.858Z,100165.02
2018-06-13T13:57:20.097Z,100163.19
2018-06-13T13:59:48.677Z,100173.45
2018-06-13T14:02:17.326Z,100176.14
2018-06-13T14:04:45.882Z,100175.68
2018-06-13T14:07:14.534Z,100178.37
2018-06-13T14:09:43.139Z,100192.83
2018-06-13T14:12:11.703Z,100189.78
2018-06-13T14:14:40.431Z,100183.38
2018-06-13T14:17:09.074Z,100187.09
2018-06-13T14:19:37.658Z,100189.13
2018-06-13T14:22:06.423Z,100185.42
2018-06-13T14:24:35.020Z,100183.38
2018-06-13T14:27:03.707Z,100189.13
2018-06-13T14:29:32.237Z,100188.43
2018-06-13T14:32:00.842Z,100196.17
2018-06-13T14:34:29.426Z,100197.88
2018-06-13T14:36:57.979Z,100196.37
2018-06-13T14:39:26.530Z,100198.05
2018-06-13T14:41:55.158Z,100199.55
2018-06-13T14:44:23.783Z,100199.19
2018-06-13T14:46:52.366Z,100202.70
2018-06-13T14:49:20.908Z,100200.86
2018-06-13T14:51:54.426Z,100196.53
2018-06-13T14:54:23.088Z,100193.84
2018-06-13T14:56:51.755Z,100200.38
2018-06-13T14:59:20.310Z,100205.09
2018-06-13T15:01:48.843Z,100215.00
2018-06-13T15:04:21.668Z,100212.80
2018-06-13T15:06:50.348Z,100211.40
2018-06-13T15:09:18.953Z,100208.55
2018-06-13T15:11:48.485Z,100215.00
2018-06-13T15:14:17.058Z,100217.20
2018-06-13T15:16:45.706Z,100221.66
2018-06-13T15:19:14.970Z,100223.98
2018-06-13T15:21:43.529Z,100228.38
2018-06-13T15:24:12.167Z,100228.06
2018-06-13T15:26:40.799Z,100216.14
2018-06-13T15:29:09.527Z,100219.84
2018-06-13T15:31:38.223Z,100223.02
2018-06-13T15:34:07.363Z,100222.15
2018-06-13T15:36:36.004Z,100227.05
2018-06-13T15:39:07.149Z,100216.46
2018-06-13T15:41:35.730Z,100216.66
2018-06-13T15:44:04.434Z,100204.69
2018-06-13T15:46:33.039Z,100204.47
2018-06-13T15:49:01.650Z,100208.55
2018-06-13T15:51:30.238Z,100211.08
2018-06-13T15:53:59.723Z,100212.63
2018-06-13T15:56:28.458Z,100215.33
2018-06-13T15:58:57.038Z,100219.36
2018-06-13T16:01:25.683Z,100216.83
2018-06-13T16:03:54.305Z,100215.32
2018-06-13T16:06:22.960Z,100218.34
2018-06-13T16:08:51.576Z,100211.25
2018-06-13T16:11:20.259Z,100216.14
2018-06-13T16:13:48.782Z,100225.70
2018-06-13T16:16:17.380Z,100213.23
2018-06-13T16:18:46.009Z,100205.34
2018-06-13T16:21:14.513Z,100204.74
2018-06-13T16:23:43.818Z,100206.63
2018-06-13T16:26:13.110Z,100209.03
2018-06-13T16:28:41.877Z,100215.23
2018-06-13T16:31:12.000Z,100203.83
2018-06-13T16:33:40.783Z,100200.86
2018-06-13T16:36:09.320Z,100205.55
2018-06-13T16:38:38.672Z,100198.78
2018-06-13T16:41:07.351Z,100200.75
2018-06-13T16:43:35.935Z,100206.45
2018-06-13T16:46:04.619Z,100196.36
2018-06-13T16:48:33.312Z,100196.72
2018-06-13T16:51:13.053Z,100196.41
2018-06-13T16:53:57.606Z,100197.75
2018-06-13T16:56:27.556Z,100205.61
2018-06-13T16:58:56.751Z,100210.75
2018-06-13T17:01:25.362Z,100216.02
2018-06-13T17:03:55.056Z,100216.32
2018-06-13T17:06:23.965Z,100220.35
2018-06-13T17:08:53.108Z,100211.96
2018-06-13T17:11:21.786Z,100227.38
2018-06-13T17:13:50.334Z,100230.54
2018-06-13T17:16:18.958Z,100227.13
2018-06-13T17:18:47.534Z,100221.48
2018-06-13T17:21:16.216Z,100222.78
2018-06-13T17:23:44.803Z,100224.84
2018-06-13T17:26:13.532Z,100224.84
2018-06-13T17:28:43.129Z,100225.52
2018-06-13T17:31:12.595Z,100217.08
2018-06-13T17:33:41.222Z,100218.40
2018-06-13T17:36:09.864Z,100235.06
2018-06-13T17:38:38.556Z,100234.66
2018-06-13T17:41:07.074Z,100230.63
2018-06-13T17:43:35.648Z,100230.85
2018-06-13T17:46:04.611Z,100229.08
2018-06-13T17:48:34.138Z,100229.96
2018-06-13T17:51:03.991Z,100239.35
2018-06-13T17:53:34.166Z,100233.90
2018-06-13T17:56:02.780Z,100241.19
2018-06-13T17:58:31.360Z,100238.59
2018-06-13T18:00:59.994Z,100238.95
2018-06-13T18:03:28.596Z,100238.56
2018-06-13T18:05:57.832Z,100242.25
2018-06-13T18:08:26.515Z,100230.21
2018-06-13T18:10:55.579Z,100229.54
2018-06-13T18:13:24.243Z,100229.88
2018-06-13T18:15:52.826Z,100236.00
2018-06-13T18:18:21.453Z,100235.19
2018-06-13T18:20:52.035Z,100232.80
2018-06-13T18:23:20.721Z,100236.61
2018-06-13T18:25:49.387Z,100243.83
2018-06-13T18:28:17.927Z,100244.31
2018-06-13T18:30:46.681Z,100240.55
2018-06-13T18:33:16.603Z,100242.72
2018-06-13T18:35:45.230Z,100246.73
2018-06-13T18:38:13.864Z,100244.80
2018-06-13T18:40:44.103Z,100242.79
2018-06-13T18:43:13.582Z,100253.58
2018-06-13T18:45:42.678Z,100255.62
2018-06-13T18:48:11.464Z,100259.59
2018-06-13T18:50:40.096Z,100257.95
2018-06-13T18:53:08.837Z,100261.77
2018-06-13T18:55:38.033Z,100269.06
2018-06-13T18:58:06.820Z,100267.83
2018-06-13T19:00:35.453Z,100269.11
2018-06-13T19:03:04.054Z,100269.27
2018-06-13T19:05:32.594Z,100265.82
2018-06-13T19:08:01.630Z,100277.61
2018-06-13T19:10:31.258Z,100270.15
2018-06-13T19:12:59.879Z,100291.75
2018-06-13T19:15:28.641Z,100291.75
2018-06-13T19:17:57.272Z,100292.03
2018-06-13T19:20:26.585Z,100305.96
2018-06-13T19:22:55.169Z,100313.05
2018-06-13T19:25:24.213Z,100313.70
2018-06-13T19:27:52.888Z,100318.87
2018-06-13T19:30:21.529Z,100326.12
2018-06-13T19:32:50.263Z,100330.61
2018-06-13T19:35:19.765Z,100330.23
2018-06-13T19:37:48.451Z,100333.45
2018-06-13T19:40:17.062Z,100337.59
2018-06-13T19:42:45.816Z,100342.20
2018-06-13T19:45:14.442Z,100341.68
2018-06-13T19:47:48.134Z,100339.66
2018-06-13T19:50:16.788Z,100349.27
2018-06-13T19:52:50.697Z,100359.42
2018-06-13T19:55:24.526Z,100363.28
2018-06-13T19:57:53.256Z,100356.71
2018-06-13T20:00:23.261Z,100356.17
2018-06-13T20:02:57.037Z,100364.53
2018-06-13T20:05:30.814Z,100370.13
2018-06-13T20:07:59.717Z,100366.23
2018-06-13T20:10:28.314Z,100371.00
2018-06-13T20:13:02.193Z,100371.57
2018-06-13T20:15:36.086Z,100373.07
2018-06-13T20:18:09.875Z,100385.50
2018-06-13T20:20:38.591Z,100388.19
2018-06-13T20:23:07.138Z,100385.08
2018-06-13T20:25:40.979Z,100392.59
2018-06-13T20:28:14.744Z,100384.14
2018-06-13T20:30:49.268Z,100392.89
2018-06-13T20:33:17.880Z,100401.00
2018-06-13T20:35:46.426Z,100389.15
2018-06-13T20:38:15.567Z,100388.34
2018-06-13T20:40:44.247Z,100396.31
2018-06-13T20:43:12.897Z,100391.50
2018-06-13T20:45:41.494Z,100393.18
2018-06-13T20:48:10.104Z,100396.95
2018-06-13T20:50:38.961Z,100388.58
2018-06-13T20:53:08.222Z,100394.05
2018-06-13T20:55:36.851Z,100394.53
2018-06-13T20:58:05.888Z,100384.70
2018-06-13T21:00:34.493Z,100386.76
2018-06-13T21:03:03.650Z,100390.02
2018-06-13T21:05:32.150Z,100389.02
2018-06-13T21:08:00.772Z,100396.05
2018-06-13T21:10:29.399Z,100396.05
2018-06-13T21:12:57.922Z,100395.31
2018-06-13T21:15:26.549Z,100389.02
2018-06-13T21:17:55.149Z,100384.08
2018-06-13T21:20:23.915Z,100383.69
2018-06-13T21:22:52.618Z,100383.92
2018-06-13T21:25:21.226Z,100391.33
2018-06-13T21:27:49.790Z,100384.05
2018-06-13T21:30:18.306Z,100388.63
2018-06-13T21:32:46.906Z,100393.48
2018-06-13T21:35:18.151Z,100395.76
2018-06-13T21:40:48.565Z,100406.17
2018-06-13T21:43:19.342Z,100412.70
2018-06-13T21:45:47.975Z,100411.38
2018-06-13T21:48:16.541Z,100402.87
2018-06-13T21:50:45.055Z,100396.34
2018-06-13T21:53:14.628Z,100404.20
2018-06-13T21:55:43.211Z,100415.08
2018-06-13T21:58:11.794Z,100408.30
2018-06-13T22:00:40.390Z,100389.17
2018-06-13T22:03:08.961Z,100397.03
2018-06-13T22:05:37.543Z,100402.23
2018-06-13T22:08:06.560Z,100395.47
2018-06-13T22:10:35.220Z,100397.03
2018-06-13T22:13:03.906Z,100398.08
2018-06-13T22:15:32.506Z,100407.72
2018-06-13T22:18:01.121Z,100394.13
2018-06-13T22:20:29.801Z,100407.42
2018-06-13T22:22:58.482Z,100404.52
2018-06-13T22:25:27.080Z,100413.94
2018-06-13T22:27:55.658Z,100415.27
2018-06-13T22:30:25.011Z,100427.13
2018-06-13T22:32:53.751Z,100424.91
2018-06-13T22:35:22.385Z,100435.31
2018-06-13T22:37:51.034Z,100423.05
2018-06-13T22:40:19.651Z,100431.88
2018-06-13T22:42:48.146Z,100433.91
2018-06-13T22:45:16.817Z,100440.19
2018-06-13T22:47:45.318Z,100441.35
2018-06-13T22:50:14.395Z,100447.41
2018-06-13T22:52:42.936Z,100434.48
2018-06-13T22:55:11.558Z,100442.09
2018-06-13T22:57:40.245Z,100443.07
2018-06-13T23:00:08.932Z,100437.01
2018-06-13T23:02:38.025Z,100436.89
2018-06-13T23:05:06.659Z,100430.64
2018-06-13T23:07:35.306Z,100442.31
2018-06-13T23:10:04.080Z,100450.17
2018-06-13T23:12:32.686Z,100457.10
2018-06-13T23:15:01.683Z,100459.34
2018-06-13T23:17:30.259Z,100457.66
2018-06-13T23:19:58.921Z,100463.91
2018-06-13T23:22:27.677Z,100457.12
2018-06-13T23:24:56.234Z,100458.88
2018-06-13T23:27:25.591Z,100461.90
2018-06-13T23:29:54.211Z,100459.85
2018-06-13T23:32:22.860Z,100460.54
2018-06-13T23:34:51.369Z,100464.63
2018-06-13T23:37:19.978Z,100462.95
2018-06-13T23:39:48.507Z,100456.63
2018-06-13T23:42:17.192Z,100462.80
2018-06-13T23:44:45.814Z,100452.39
2018-06-13T23:47:14.491Z,100444.86
2018-06-13T23:49:43.046Z,100460.50
2018-06-13T23:52:11.666Z,100458.42
2018-06-13T23:54:40.254Z,100459.17
2018-06-13T23:57:08.832Z,100458.96
2018-06-13T23:59:37.394Z,100462.37
